Time;durP1;ratioP1;P1;durP2;ratioP2;P2;SDS_P1;SDS_P2;PMS_P1;PMS_P2;Temp;Humidity;BMP_temperature;BMP_pressure;BME280_temperature;BME280_humidity;BME280_pressure;Samples;Min_cycle;Max_cycle;Signal;HPM_P1;HPM_P2
2022/07/31 00:00:41;;;;;;;9.27;5.93;;;;;;;21.52;57.87;101491.34;3588563;39;20129;-63
2022/07/31 00:03:07;;;;;;;10.80;6.03;;;;;;;21.48;58.52;101488.06;3593180;39;20369;-61
2022/07/31 00:05:34;;;;;;;12.95;9.57;;;;;;;21.45;58.52;101488.38;3593297;39;20043;-62
2022/07/31 00:08:01;;;;;;;21.33;16.98;;;;;;;21.45;58.36;101482.91;3590028;39;20606;-61
2022/07/31 00:10:27;;;;;;;13.10;8.13;;;;;;;21.43;58.60;101482.16;3591599;39;20071;-61
2022/07/31 00:12:53;;;;;;;8.63;6.57;;;;;;;21.43;58.41;101490.38;3591925;39;20394;-61
2022/07/31 00:15:19;;;;;;;9.43;6.35;;;;;;;21.46;58.32;101478.28;3591534;39;20061;-64
2022/07/31 00:17:45;;;;;;;10.18;6.57;;;;;;;21.45;58.36;101482.91;3595538;39;20048;-64
2022/07/31 00:20:15;;;;;;;10.02;6.50;;;;;;;21.46;58.12;101479.13;3593194;39;20149;-61
2022/07/31 00:22:46;;;;;;;10.05;6.95;;;;;;;21.43;58.25;101468.50;3592572;39;20051;-61
2022/07/31 00:25:15;;;;;;;18.30;12.50;;;;;;;21.43;58.06;101471.22;3590678;39;20060;-61
2022/07/31 00:27:41;;;;;;;15.27;10.25;;;;;;;21.44;57.89;101478.44;3592665;39;20511;-61
2022/07/31 00:30:08;;;;;;;9.57;8.10;;;;;;;21.48;57.95;101476.28;3593118;39;20290;-61
2022/07/31 00:32:34;;;;;;;8.07;7.30;;;;;;;21.50;57.81;101469.63;3592703;39;20523;-64
2022/07/31 00:35:00;;;;;;;10.02;8.05;;;;;;;21.43;58.32;101470.38;3590946;39;20064;-61
2022/07/31 00:37:26;;;;;;;9.27;8.38;;;;;;;21.47;57.49;101472.69;3592854;39;20056;-61
2022/07/31 00:39:53;;;;;;;16.15;9.05;;;;;;;20.55;57.62;101333.97;3594822;39;20254;-61
2022/07/31 00:42:23;;;;;;;10.63;8.20;;;;;;;21.45;57.62;101491.09;3594873;39;20084;-61
2022/07/31 00:44:51;;;;;;;12.15;8.07;;;;;;;21.42;56.95;101483.19;3591739;39;20071;-61
2022/07/31 00:47:18;;;;;;;7.93;6.38;;;;;;;21.40;57.55;101487.94;3590767;39;20168;-62
2022/07/31 00:49:44;;;;;;;8.65;6.57;;;;;;;21.37;57.64;101485.50;3591856;39;20078;-62
2022/07/31 00:52:10;;;;;;;12.60;6.43;;;;;;;21.35;56.55;101489.38;3589564;39;20131;-62
2022/07/31 00:54:36;;;;;;;14.27;11.45;;;;;;;21.35;57.12;101476.59;3591083;39;20075;-62
2022/07/31 00:57:04;;;;;;;13.38;11.82;;;;;;;21.36;57.13;101478.31;3592761;39;20450;-62
2022/07/31 00:59:31;;;;;;;21.77;16.50;;;;;;;21.34;57.13;101469.34;3590930;39;20055;-63
2022/07/31 01:01:58;;;;;;;17.98;11.98;;;;;;;21.32;57.22;101461.31;3592469;39;20064;-63
2022/07/31 01:04:25;;;;;;;11.75;7.88;;;;;;;21.30;57.62;101465.19;3589671;39;20063;-63
2022/07/31 01:06:51;;;;;;;11.90;7.45;;;;;;;21.26;58.25;101466.53;3592314;39;20534;-63
2022/07/31 01:09:17;;;;;;;8.60;7.53;;;;;;;21.26;58.37;101469.25;3580851;39;20062;-63
2022/07/31 01:12:00;;;;;;;9.02;8.00;;;;;;;21.23;58.44;101473.16;3588855;39;20075;-64
2022/07/31 01:14:35;;;;;;;11.10;9.98;;;;;;;21.21;58.84;101468.81;3590550;39;20054;-63
2022/07/31 01:17:05;;;;;;;12.30;11.00;;;;;;;21.19;58.80;101470.88;3593564;39;20087;-63
2022/07/31 01:19:44;;;;;;;8.55;6.80;;;;;;;21.14;59.65;101474.03;3589956;39;20060;-63
2022/07/31 01:22:15;;;;;;;8.15;5.65;;;;;;;21.06;60.05;101477.50;3589871;39;20051;-63
2022/07/31 01:25:04;;;;;;;9.82;6.18;;;;;;;20.97;60.06;101474.81;3591622;39;20066;-63
2022/07/31 01:28:07;;;;;;;9.48;7.32;;;;;;;20.90;59.88;101469.06;3590692;39;20126;-63
2022/07/31 01:30:51;;;;;;;10.18;5.82;;;;;;;20.88;60.65;101462.88;3592634;39;20055;-63
2022/07/31 01:33:31;;;;;;;9.20;5.95;;;;;;;20.84;60.25;101461.44;3598204;39;20059;-63
2022/07/31 01:36:20;;;;;;;8.93;5.38;;;;;;;20.81;60.02;101461.75;3591697;39;20502;-63
2022/07/31 01:38:53;;;;;;;7.00;6.00;;;;;;;20.66;60.68;101441.34;3591846;39;20125;-63
2022/07/31 01:41:25;;;;;;;;;;;;;;;20.71;60.33;101456.28;3590310;39;20055;-63
2022/07/31 01:43:57;;;;;;;9.25;6.50;;;;;;;20.68;59.83;101464.78;3591221;39;19939;-62
2022/07/31 01:46:27;;;;;;;7.75;6.28;;;;;;;20.66;59.62;101460.47;3592928;39;20059;-63
2022/07/31 01:48:56;;;;;;;12.77;6.72;;;;;;;20.59;60.48;101454.72;3591216;39;20061;-63
2022/07/31 01:51:25;;;;;;;9.32;5.70;;;;;;;20.28;60.20;101407.53;3588541;39;20097;-63
2022/07/31 01:53:54;;;;;;;9.20;6.97;;;;;;;20.36;60.18;101418.59;3591857;39;20290;-62
2022/07/31 01:56:23;;;;;;;7.57;6.18;;;;;;;20.54;60.01;101460.59;3591688;39;20164;-62
2022/07/31 01:58:50;;;;;;;10.10;6.50;;;;;;;20.53;59.29;101458.03;3591208;39;20063;-62
2022/07/31 02:01:17;;;;;;;10.52;6.20;;;;;;;20.52;59.59;101456.28;3590279;39;20460;-62
2022/07/31 02:03:46;;;;;;;13.57;6.20;;;;;;;20.51;59.89;101455.41;3589783;39;20063;-63
2022/07/31 02:06:19;;;;;;;14.60;7.03;;;;;;;20.39;59.35;101445.59;3592201;39;20108;-62
2022/07/31 02:08:49;;;;;;;9.15;6.88;;;;;;;20.42;59.80;101456.25;3589967;39;20103;-62
2022/07/31 02:11:18;;;;;;;11.15;6.60;;;;;;;20.41;60.34;101449.91;3591418;39;20060;-62
2022/07/31 02:13:47;;;;;;;10.23;7.10;;;;;;;20.38;60.04;101447.47;3590002;39;21145;-62
2022/07/31 02:16:17;;;;;;;9.45;6.53;;;;;;;20.35;61.07;101446.91;3591945;39;20132;-62
2022/07/31 02:18:42;;;;;;;12.00;6.40;;;;;;;20.35;61.21;101449.63;3590549;39;20060;-63
2022/07/31 02:21:09;;;;;;;11.82;7.28;;;;;;;20.34;61.07;101450.66;3589764;39;20063;-63
2022/07/31 02:23:34;;;;;;;8.80;6.55;;;;;;;20.31;61.46;101445.47;3589501;39;20071;-63
2022/07/31 02:26:02;;;;;;;8.50;6.80;;;;;;;20.24;60.77;101430.69;3589834;39;20184;-63
2022/07/31 02:28:33;;;;;;;8.88;6.57;;;;;;;20.23;61.60;101445.31;3589289;39;20087;-63
2022/07/31 02:31:00;;;;;;;10.55;7.03;;;;;;;20.23;61.40;101458.97;3574343;39;20059;-63
2022/07/31 02:33:28;;;;;;;8.85;6.75;;;;;;;19.93;61.48;101412.53;3592631;39;20125;-62
2022/07/31 02:35:55;;;;;;;9.57;7.00;;;;;;;20.21;61.93;101458.28;3589884;39;20380;-63
2022/07/31 02:38:25;;;;;;;9.25;7.13;;;;;;;20.17;61.37;101458.56;3590250;39;20298;-62
2022/07/31 02:40:57;;;;;;;8.48;7.25;;;;;;;20.15;61.95;101454.22;3589464;39;20308;-62
2022/07/31 02:43:29;;;;;;;9.65;7.32;;;;;;;20.07;62.74;101454.91;3590446;39;20055;-62
2022/07/31 02:45:56;;;;;;;10.52;7.78;;;;;;;20.04;62.35;101451.63;3590871;39;20058;-62
2022/07/31 02:48:25;;;;;;;9.63;7.28;;;;;;;20.04;63.11;101449.75;3589905;39;20281;-62
2022/07/31 02:50:51;;;;;;;10.13;7.40;;;;;;;20.04;62.82;101452.47;3589388;39;20368;-62
2022/07/31 02:53:18;;;;;;;10.60;6.95;;;;;;;20.02;62.70;101449.03;3591027;39;20071;-62
2022/07/31 02:55:45;;;;;;;10.65;7.53;;;;;;;19.99;63.01;101454.78;3590765;39;20132;-62
2022/07/31 02:58:11;;;;;;;10.68;6.68;;;;;;;19.85;64.04;101433.34;3591111;39;20047;-62
2022/07/31 03:00:37;;;;;;;12.00;7.10;;;;;;;19.92;63.55;101445.44;3589722;39;20064;-62
2022/07/31 03:03:03;;;;;;;10.15;6.97;;;;;;;19.73;63.71;101410.78;3589209;39;20083;-62
2022/07/31 03:05:30;;;;;;;11.25;7.20;;;;;;;19.89;63.79;101437.53;3592048;39;20055;-62
2022/07/31 03:07:55;;;;;;;8.50;6.70;;;;;;;19.83;63.59;101443.53;3591715;39;20126;-62
2022/07/31 03:10:21;;;;;;;8.77;7.50;;;;;;;19.80;64.10;101438.38;3589350;39;20464;-62
2022/07/31 03:12:52;;;;;;;10.88;7.43;;;;;;;19.80;64.30;101435.63;3592438;39;20327;-62
2022/07/31 03:15:21;;;;;;;11.73;8.82;;;;;;;19.61;64.70;101415.44;3590737;39;20203;-61
2022/07/31 03:17:49;;;;;;;12.43;7.60;;;;;;;19.74;64.77;101431.59;3588393;39;20418;-61
2022/07/31 03:20:15;;;;;;;11.32;8.45;;;;;;;19.69;64.20;101426.56;3595656;39;20062;-62
2022/07/31 03:22:44;;;;;;;11.95;9.18;;;;;;;19.59;64.87;101412.00;3585265;39;20055;-61
2022/07/31 03:25:10;;;;;;;11.57;8.38;;;;;;;19.66;64.97;101426.84;3591194;39;20061;-61
2022/07/31 03:27:37;;;;;;;13.63;8.65;;;;;;;19.54;64.63;101403.38;3591408;39;20519;-61
2022/07/31 03:30:05;;;;;;;12.98;9.23;;;;;;;19.65;64.35;101422.38;3588982;39;20051;-61
2022/07/31 03:32:31;;;;;;;10.45;8.65;;;;;;;19.69;63.97;101426.56;3591962;39;20718;-61
2022/07/31 03:34:56;;;;;;;12.32;8.95;;;;;;;19.70;65.04;101425.56;3590295;39;20403;-61
2022/07/31 03:37:22;;;;;;;14.70;9.23;;;;;;;19.69;64.42;101415.66;3591238;39;20051;-61
2022/07/31 03:39:47;;;;;;;12.07;8.90;;;;;;;19.67;65.03;101422.25;3590884;39;20566;-60
2022/07/31 03:42:14;;;;;;;13.45;9.27;;;;;;;19.62;64.88;101421.75;3590447;39;20074;-60
2022/07/31 03:44:42;;;;;;;12.02;9.70;;;;;;;19.62;65.19;101424.50;3595784;39;20062;-60
2022/07/31 03:47:08;;;;;;;10.57;9.50;;;;;;;19.62;64.86;101419.91;3594261;39;20091;-60
2022/07/31 03:49:34;;;;;;;13.25;10.25;;;;;;;19.47;64.60;101396.72;3594148;39;20094;-60
2022/07/31 03:52:00;;;;;;;14.05;10.23;;;;;;;19.61;64.30;101426.38;3591757;39;20474;-60
2022/07/31 03:54:26;;;;;;;13.02;10.45;;;;;;;19.60;64.58;101416.47;3593314;39;20063;-60
2022/07/31 03:56:56;;;;;;;13.18;9.60;;;;;;;19.54;64.86;101411.56;3590861;39;20071;-60
2022/07/31 03:59:24;;;;;;;13.27;10.35;;;;;;;19.64;64.33;101428.84;3591464;39;20078;-61
2022/07/31 04:01:50;;;;;;;13.65;10.48;;;;;;;19.65;64.22;101427.84;3591310;39;20371;-61
2022/07/31 04:04:17;;;;;;;10.82;9.63;;;;;;;19.66;65.45;101425.97;3592107;39;20077;-60
2022/07/31 04:06:43;;;;;;;11.10;9.90;;;;;;;19.62;64.48;101433.53;3591478;39;20092;-60
2022/07/31 04:09:08;;;;;;;13.68;10.43;;;;;;;19.66;64.63;101426.84;3592490;39;20063;-60
2022/07/31 04:11:34;;;;;;;14.02;9.88;;;;;;;19.68;64.65;101434.88;3593687;39;20090;-60
2022/07/31 04:14:00;;;;;;;13.45;10.73;;;;;;;19.68;64.69;101424.81;3592207;39;20055;-61
2022/07/31 04:16:25;;;;;;;14.43;10.15;;;;;;;19.63;64.71;101427.09;3591430;39;20063;-60
2022/07/31 04:18:51;;;;;;;12.45;9.45;;;;;;;19.66;64.82;101434.16;3590872;39;20393;-60
2022/07/31 04:21:16;;;;;;;12.55;9.27;;;;;;;19.68;64.79;101435.75;3591483;39;20074;-60
2022/07/31 04:23:42;;;;;;;15.07;9.73;;;;;;;19.65;64.42;101425.09;3592734;39;20373;-60
2022/07/31 04:26:07;;;;;;;11.35;9.70;;;;;;;19.73;64.21;101438.06;3592317;39;20054;-60
2022/07/31 04:28:33;;;;;;;11.25;8.77;;;;;;;19.71;64.46;101443.66;3591181;39;20051;-60
2022/07/31 04:30:59;;;;;;;10.63;8.77;;;;;;;19.73;65.47;101442.63;3592563;39;20368;-61
2022/07/31 04:33:25;;;;;;;12.45;9.20;;;;;;;19.73;65.28;101440.78;3592760;39;20189;-60
2022/07/31 04:35:51;;;;;;;10.73;8.23;;;;;;;19.69;64.90;101436.59;3591078;39;20404;-60
2022/07/31 04:38:18;;;;;;;11.15;8.68;;;;;;;19.65;65.58;101446.94;3591625;39;20413;-60
2022/07/31 04:40:43;;;;;;;10.52;8.32;;;;;;;19.63;66.43;101440.72;3590986;39;20560;-61
2022/07/31 04:43:09;;;;;;;11.35;7.93;;;;;;;19.59;66.09;101444.72;3591552;39;20064;-62
2022/07/31 04:45:35;;;;;;;10.68;7.47;;;;;;;19.63;66.31;101443.47;3593236;39;20089;-61
2022/07/31 04:48:00;;;;;;;9.85;7.40;;;;;;;19.69;66.44;101432.03;3590583;39;20059;-61
2022/07/31 04:50:26;;;;;;;9.85;6.88;;;;;;;19.70;65.88;101441.94;3591793;39;20070;-60
2022/07/31 04:52:52;;;;;;;9.40;6.57;;;;;;;19.71;67.03;101431.88;3590672;39;20128;-61
2022/07/31 04:55:17;;;;;;;9.05;6.40;;;;;;;19.75;66.81;101436.03;3590115;39;20058;-61
2022/07/31 04:57:43;;;;;;;9.85;7.00;;;;;;;19.79;66.77;101436.63;3592430;39;20291;-61
2022/07/31 05:00:09;;;;;;;7.20;6.15;;;;;;;19.85;65.97;101431.50;3591412;39;20051;-61
2022/07/31 05:02:36;;;;;;;7.40;6.28;;;;;;;19.79;66.84;101431.16;3590697;39;20319;-61
2022/07/31 05:05:02;;;;;;;6.45;5.85;;;;;;;19.80;66.46;101433.78;3591863;39;20067;-61
2022/07/31 05:07:28;;;;;;;10.73;6.82;;;;;;;19.81;67.39;101434.63;3594171;39;20052;-61
2022/07/31 05:09:53;;;;;;;6.65;5.97;;;;;;;19.79;67.53;101431.16;3583938;39;20709;-60
2022/07/31 05:12:19;;;;;;;8.85;6.13;;;;;;;19.82;67.71;101434.50;3589104;39;20055;-61
2022/07/31 05:14:45;;;;;;;8.35;5.80;;;;;;;19.84;66.96;101439.81;3594439;39;20048;-61
2022/07/31 05:17:10;;;;;;;8.77;6.10;;;;;;;19.87;67.92;101423.16;3591859;39;20342;-61
2022/07/31 05:19:36;;;;;;;8.20;5.88;;;;;;;19.86;67.99;101416.84;3591385;39;20148;-61
2022/07/31 05:22:03;;;;;;;6.85;5.28;;;;;;;19.83;67.38;101421.72;3591057;39;20063;-61
2022/07/31 05:24:30;;;;;;;7.15;5.30;;;;;;;19.78;68.59;101415.81;3591420;39;20051;-61
2022/07/31 05:26:56;;;;;;;7.47;5.00;;;;;;;19.80;68.26;101417.41;3592269;39;20386;-60
2022/07/31 05:29:22;;;;;;;6.43;5.30;;;;;;;19.83;68.61;101419.00;3592605;39;20627;-61
2022/07/31 05:31:47;;;;;;;6.05;5.18;;;;;;;19.81;69.06;101418.25;3592597;39;20412;-61
2022/07/31 05:34:13;;;;;;;6.22;4.90;;;;;;;19.82;68.21;101411.78;3591210;39;20063;-61
2022/07/31 05:36:39;;;;;;;5.15;4.57;;;;;;;19.91;68.83;101410.94;3592717;39;20053;-61
2022/07/31 05:39:05;;;;;;;8.48;4.70;;;;;;;19.74;68.46;101389.81;3593518;39;20079;-61
2022/07/31 05:41:32;;;;;;;5.82;4.93;;;;;;;19.89;69.11;101410.25;3591557;39;20082;-60
2022/07/31 05:44:01;;;;;;;6.50;4.78;;;;;;;19.84;69.34;101397.00;3590037;39;20058;-61
2022/07/31 05:46:26;;;;;;;5.25;4.72;;;;;;;19.89;69.58;101405.66;3591938;39;20063;-61
2022/07/31 05:48:52;;;;;;;5.95;4.68;;;;;;;19.85;69.85;101415.13;3593536;39;20058;-61
2022/07/31 05:51:17;;;;;;;7.57;5.18;;;;;;;19.90;69.67;101414.69;3592956;39;20501;-61
2022/07/31 05:53:43;;;;;;;5.55;4.80;;;;;;;19.86;69.91;101407.78;3591241;39;20111;-61
2022/07/31 05:56:09;;;;;;;5.13;4.60;;;;;;;19.90;69.32;101417.41;3593290;39;20095;-60
2022/07/31 05:58:35;;;;;;;5.80;5.15;;;;;;;19.91;70.03;101417.25;3592314;39;20083;-60
2022/07/31 06:01:02;;;;;;;5.28;4.80;;;;;;;19.94;69.79;101416.13;3590714;39;20052;-61
2022/07/31 06:03:28;;;;;;;7.47;4.60;;;;;;;19.78;69.58;101381.19;3591498;39;20067;-60
2022/07/31 06:05:55;;;;;;;6.43;5.00;;;;;;;20.00;69.84;101412.81;3590713;39;20052;-61
2022/07/31 06:08:21;;;;;;;7.10;5.07;;;;;;;19.95;70.17;101415.13;3591186;39;20063;-61
2022/07/31 06:10:47;;;;;;;7.28;4.93;;;;;;;19.98;70.38;101408.50;3591440;39;20948;-61
2022/07/31 06:13:13;;;;;;;6.97;4.80;;;;;;;20.00;70.30;101406.50;3593421;39;20401;-61
2022/07/31 06:15:41;;;;;;;7.72;5.38;;;;;;;20.04;69.99;101419.72;3592555;39;20055;-61
2022/07/31 06:18:07;;;;;;;5.97;4.60;;;;;;;20.05;69.74;101418.72;3591575;39;20067;-61
2022/07/31 06:20:32;;;;;;;6.55;4.78;;;;;;;19.90;69.97;101395.59;3592700;39;20066;-61
2022/07/31 06:22:58;;;;;;;7.38;4.75;;;;;;;20.06;69.76;101419.59;3588795;39;20075;-60
2022/07/31 06:25:24;;;;;;;7.22;4.72;;;;;;;19.83;70.30;101388.97;3583186;39;20407;-61
2022/07/31 06:27:50;;;;;;;6.63;4.70;;;;;;;20.06;69.97;101416.88;3592369;39;20063;-60
2022/07/31 06:30:16;;;;;;;6.65;4.95;;;;;;;20.07;70.68;101402.19;3594735;39;20063;-60
2022/07/31 06:32:42;;;;;;;4.80;4.40;;;;;;;20.10;70.47;101401.91;3591386;39;20503;-60
2022/07/31 06:35:09;;;;;;;6.82;4.88;;;;;;;20.09;69.61;101401.06;3591801;39;20065;-62
2022/07/31 06:37:35;;;;;;;6.10;4.80;;;;;;;20.01;70.05;101381.78;3595485;39;20059;-61
2022/07/31 06:40:01;;;;;;;5.35;4.45;;;;;;;20.23;70.82;101407.09;3588150;39;20057;-61
2022/07/31 06:42:27;;;;;;;5.47;4.72;;;;;;;20.28;70.11;101402.06;3593524;39;20058;-62
2022/07/31 06:44:53;;;;;;;4.90;4.40;;;;;;;20.24;69.84;101397.91;3590079;39;20055;-62
2022/07/31 06:47:23;;;;;;;6.70;4.80;;;;;;;20.35;69.90;101408.69;3593550;39;20051;-62
2022/07/31 06:49:48;;;;;;;6.68;4.95;;;;;;;20.37;69.42;101402.06;3587231;39;20182;-62
2022/07/31 06:52:14;;;;;;;7.47;5.00;;;;;;;20.34;70.16;101406.97;3584460;39;20055;-62
2022/07/31 06:54:42;;;;;;;5.13;4.47;;;;;;;20.37;70.09;101417.59;3582981;39;20035;-62
2022/07/31 06:57:09;;;;;;;5.22;4.70;;;;;;;20.41;70.31;101419.03;3591495;39;20112;-62
2022/07/31 06:59:35;;;;;;;6.93;4.80;;;;;;;20.44;70.17;101401.50;3591069;39;20329;-62
2022/07/31 07:02:00;;;;;;;7.80;4.75;;;;;;;20.48;69.55;101398.31;3590309;39;20313;-63
2022/07/31 07:04:26;;;;;;;6.28;4.72;;;;;;;20.55;69.58;101401.34;3593058;39;20071;-62
2022/07/31 07:06:52;;;;;;;7.25;5.10;;;;;;;20.57;69.95;101399.34;3591313;39;20067;-62
2022/07/31 07:09:17;;;;;;;6.15;5.00;;;;;;;20.66;69.42;101405.81;3593920;39;20063;-62
2022/07/31 07:11:43;;;;;;;9.85;6.28;;;;;;;20.71;69.57;101411.69;3592432;39;20417;-61
2022/07/31 07:14:09;;;;;;;11.15;6.60;;;;;;;20.63;69.81;101410.56;3592733;39;20068;-62
2022/07/31 07:16:34;;;;;;;9.23;6.35;;;;;;;20.52;70.44;101391.59;3592653;39;20121;-62
2022/07/31 07:19:00;;;;;;;8.93;6.32;;;;;;;20.71;70.27;101411.69;3590465;39;20120;-62
2022/07/31 07:21:26;;;;;;;10.43;6.70;;;;;;;20.75;69.62;101391.28;3591336;39;20397;-62
2022/07/31 07:23:51;;;;;;;7.97;6.28;;;;;;;20.88;69.11;101412.81;3590302;39;20047;-65
2022/07/31 07:26:17;;;;;;;9.60;6.90;;;;;;;20.98;68.94;101413.66;3592301;39;20066;-64
2022/07/31 07:28:43;;;;;;;9.02;7.35;;;;;;;21.06;68.60;101409.16;3591915;39;20052;-64
2022/07/31 07:31:09;;;;;;;10.73;7.88;;;;;;;21.13;68.80;101405.84;3591776;39;20590;-63
2022/07/31 07:33:35;;;;;;;9.48;7.90;;;;;;;21.20;68.24;101412.44;3593656;39;20051;-64
2022/07/31 07:36:01;;;;;;;10.40;7.60;;;;;;;21.32;68.27;101401.16;3591158;39;20093;-63
2022/07/31 07:38:27;;;;;;;7.70;6.90;;;;;;;21.45;67.81;101406.31;3591990;39;20063;-63
2022/07/31 07:40:52;;;;;;;10.25;7.80;;;;;;;21.50;67.37;101401.25;3590630;39;20454;-63
2022/07/31 07:43:19;;;;;;;11.55;8.60;;;;;;;21.56;66.90;101397.88;3590976;39;20477;-63
2022/07/31 07:45:44;;;;;;;13.50;9.70;;;;;;;21.56;66.84;101402.50;3592966;39;20049;-63
2022/07/31 07:48:10;;;;;;;12.13;9.25;;;;;;;21.59;66.78;101399.44;3593442;39;20075;-63
2022/07/31 07:50:36;;;;;;;10.70;8.52;;;;;;;21.61;67.33;101399.31;3588923;39;20495;-63
2022/07/31 07:53:01;;;;;;;9.52;8.63;;;;;;;21.68;67.07;101397.69;3590970;39;20539;-63
2022/07/31 07:55:27;;;;;;;9.40;8.48;;;;;;;21.72;67.11;101402.69;3592620;39;20481;-63
2022/07/31 07:57:53;;;;;;;10.05;8.80;;;;;;;21.77;66.46;101404.97;3590714;39;20094;-63
2022/07/31 08:00:19;;;;;;;12.40;9.25;;;;;;;21.70;66.98;101409.34;3591681;39;20258;-63
2022/07/31 08:02:47;;;;;;;10.13;9.13;;;;;;;21.76;66.81;101403.25;3589396;39;20485;-64
2022/07/31 08:05:14;;;;;;;10.02;8.50;;;;;;;21.83;66.74;101398.88;3589827;39;20426;-64
2022/07/31 08:07:41;;;;;;;10.70;8.40;;;;;;;21.52;66.68;101332.69;3591766;39;20057;-63
2022/07/31 08:10:08;;;;;;;13.48;10.70;;;;;;;21.97;66.09;101401.06;3592046;39;20055;-63
2022/07/31 08:12:34;;;;;;;10.35;8.95;;;;;;;22.03;65.83;101392.25;3592691;39;20047;-63
2022/07/31 08:15:00;;;;;;;9.80;8.80;;;;;;;22.14;66.03;101395.78;3594999;39;20425;-63
2022/07/31 08:17:25;;;;;;;9.77;7.88;;;;;;;22.32;65.57;101388.44;3593346;39;20052;-63
2022/07/31 08:19:51;;;;;;;9.57;8.00;;;;;;;22.21;65.47;101347.63;3594063;39;20075;-64
2022/07/31 08:22:17;;;;;;;10.40;7.13;;;;;;;22.62;64.97;101389.88;3596211;39;20059;-63
2022/07/31 08:24:43;;;;;;;8.63;7.43;;;;;;;22.78;64.09;101391.88;3593209;39;20067;-64
2022/07/31 08:27:30;;;;;;;10.93;8.10;;;;;;;22.52;63.78;101349.88;3594951;39;20051;-63
2022/07/31 08:29:58;;;;;;;10.30;8.00;;;;;;;22.78;63.73;101386.41;3596525;39;20380;-63
2022/07/31 08:32:26;;;;;;;11.13;8.02;;;;;;;22.78;63.71;101388.28;3595034;39;20048;-64
2022/07/31 08:34:53;;;;;;;8.60;7.80;;;;;;;22.76;63.76;101379.34;3596180;39;20480;-64
2022/07/31 08:37:20;;;;;;;9.90;7.25;;;;;;;22.78;63.79;101386.41;3596702;39;20043;-64
2022/07/31 08:39:50;;;;;;;11.35;7.13;;;;;;;22.83;63.99;101395.00;3594140;39;20129;-64
2022/07/31 08:42:17;;;;;;;8.38;6.65;;;;;;;22.83;64.10;101386.75;3594212;39;20096;-64
2022/07/31 08:44:44;;;;;;;9.35;7.30;;;;;;;22.68;63.88;101367.31;3592582;39;20062;-63
2022/07/31 08:47:14;;;;;;;7.97;7.05;;;;;;;22.78;64.02;101397.38;3591817;39;20128;-63
2022/07/31 08:49:45;;;;;;;9.00;6.88;;;;;;;22.70;64.41;101392.66;3592733;39;20144;-63
2022/07/31 08:52:25;;;;;;;7.55;6.80;;;;;;;22.63;64.45;101391.59;3591463;39;20070;-63
2022/07/31 08:54:52;;;;;;;7.32;6.57;;;;;;;22.46;64.76;101374.19;3591852;39;20062;-63
2022/07/31 08:57:19;;;;;;;7.43;6.57;;;;;;;22.55;64.78;101397.03;3593335;39;20059;-64
2022/07/31 08:59:47;;;;;;;8.93;7.20;;;;;;;22.55;64.97;101391.56;3592795;39;20059;-63
2022/07/31 09:02:14;;;;;;;7.50;6.78;;;;;;;22.55;65.03;101399.78;3590708;39;20060;-63
2022/07/31 09:04:40;;;;;;;8.93;6.13;;;;;;;22.63;64.79;101404.44;3591872;39;20279;-63
2022/07/31 09:07:14;;;;;;;9.82;6.90;;;;;;;22.63;64.99;101398.97;3591789;39;20113;-64
2022/07/31 09:09:46;;;;;;;8.95;6.78;;;;;;;22.65;64.62;101395.06;3594902;39;20067;-64
2022/07/31 09:12:12;;;;;;;7.32;6.65;;;;;;;22.70;64.74;101386.34;3591971;39;20065;-64
2022/07/31 09:14:45;;;;;;;7.07;6.10;;;;;;;22.79;64.87;101379.88;3590991;39;20055;-64
2022/07/31 09:17:14;;;;;;;;;;;;;;;22.85;64.17;101383.88;3592984;39;20465;-63
2022/07/31 09:19:46;;;;;;;8.52;6.47;;;;;;;22.90;64.43;101382.38;3588411;39;20020;-64
2022/07/31 09:22:22;;;;;;;12.23;9.13;;;;;;;22.84;64.41;101361.09;3592323;39;20101;-63
2022/07/31 09:24:47;;;;;;;11.65;9.02;;;;;;;23.04;64.20;101375.47;3592848;39;20047;-63
2022/07/31 09:27:16;;;;;;;7.70;6.38;;;;;;;23.09;63.95;101350.28;3593285;39;20056;-63
2022/07/31 09:29:45;;;;;;;7.43;6.25;;;;;;;23.37;63.31;101373.75;3593235;39;20135;-63
2022/07/31 09:32:15;;;;;;;5.95;5.00;;;;;;;23.49;63.20;101376.19;3590823;39;20121;-63
2022/07/31 09:34:43;;;;;;;8.68;6.13;;;;;;;23.60;62.91;101375.88;3592094;39;20137;-63
2022/07/31 09:37:23;;;;;;;6.63;5.95;;;;;;;23.70;62.10;101384.00;3591317;39;20051;-63
2022/07/31 09:39:53;;;;;;;8.80;5.90;;;;;;;23.05;62.09;101263.88;3589553;39;20117;-63
2022/07/31 09:42:21;;;;;;;6.35;5.50;;;;;;;23.82;61.23;101383.53;3590609;39;20058;-64
2022/07/31 09:44:49;;;;;;;7.03;4.88;;;;;;;24.11;62.12;101376.72;3584890;39;20048;-63
2022/07/31 09:47:27;;;;;;;5.47;4.43;;;;;;;24.57;60.61;101377.06;3591229;39;20087;-64
2022/07/31 09:50:04;;;;;;;9.20;5.15;;;;;;;24.89;58.73;101376.16;3591056;39;20384;-64
2022/07/31 09:52:31;;;;;;;6.07;4.68;;;;;;;25.00;58.31;101377.72;3593311;39;20063;-64
2022/07/31 09:55:14;;;;;;;5.45;4.97;;;;;;;25.09;57.35;101371.16;3594573;39;20063;-64
2022/07/31 09:57:56;;;;;;;6.00;5.07;;;;;;;25.08;57.46;101369.41;3592041;39;20056;-64
2022/07/31 10:00:23;;;;;;;7.53;4.28;;;;;;;25.20;58.27;101364.44;3593828;39;20438;-63
2022/07/31 10:02:53;;;;;;;16.50;14.55;;;;;;;25.43;57.45;101372.75;3591835;39;20409;-64
2022/07/31 10:05:25;;;;;;;4.50;4.10;;;;;;;25.41;56.75;101372.09;3593129;39;20052;-64
2022/07/31 10:07:56;;;;;;;5.05;4.00;;;;;;;25.27;56.96;101368.16;3590334;39;20051;-64
2022/07/31 10:10:22;;;;;;;6.13;4.43;;;;;;;25.19;57.01;101377.34;3591396;39;20446;-64
2022/07/31 10:12:53;;;;;;;6.88;3.92;;;;;;;25.12;56.91;101381.84;3590055;39;20389;-64
2022/07/31 10:15:24;;;;;;;4.88;4.43;;;;;;;25.03;57.38;101371.84;3590771;39;20064;-64
2022/07/31 10:17:54;;;;;;;4.40;4.00;;;;;;;25.00;57.29;101372.19;3592871;39;20085;-63
2022/07/31 10:20:23;;;;;;;5.07;3.80;;;;;;;24.99;57.44;101373.22;3594056;39;20313;-66
2022/07/31 10:22:58;;;;;;;6.03;3.72;;;;;;;24.92;57.89;101359.31;3590461;39;20056;-64
2022/07/31 10:25:46;;;;;;;6.32;3.85;;;;;;;24.97;57.42;101372.56;3593017;39;20047;-63
2022/07/31 10:28:13;;;;;;;7.60;4.25;;;;;;;24.82;57.11;101357.81;3591487;39;20548;-63
2022/07/31 10:30:39;;;;;;;9.77;6.03;;;;;;;24.83;57.17;101367.75;3594066;39;20129;-64
2022/07/31 10:33:05;;;;;;;6.20;3.67;;;;;;;24.92;57.62;101359.31;3591896;39;20322;-65
2022/07/31 10:35:39;;;;;;;4.45;3.40;;;;;;;24.94;57.70;101364.66;3590623;39;20297;-64
2022/07/31 10:38:18;;;;;;;5.05;3.40;;;;;;;25.11;57.81;101358.06;3591360;39;20096;-65
2022/07/31 10:41:30;;;;;;;4.05;3.17;;;;;;;25.23;56.47;101356.66;3584424;39;20412;-66
2022/07/31 10:44:09;;;;;;;4.68;3.38;;;;;;;25.33;56.47;101350.09;3591899;39;20047;-65
2022/07/31 10:46:34;;;;;;;5.63;3.63;;;;;;;25.40;56.43;101351.94;3594125;39;20515;-64
2022/07/31 10:49:00;;;;;;;3.95;3.53;;;;;;;25.36;55.56;101353.34;3592779;39;20048;-65
2022/07/31 10:51:26;;;;;;;5.07;3.40;;;;;;;25.44;56.09;101352.47;3593212;39;20070;-65
2022/07/31 10:53:55;;;;;;;4.50;3.63;;;;;;;25.31;55.98;101344.78;3591615;39;20382;-64
2022/07/31 10:56:21;;;;;;;5.57;3.58;;;;;;;25.24;56.95;101352.03;3592326;39;20059;-66
2022/07/31 10:58:56;;;;;;;6.53;3.22;;;;;;;25.18;56.28;101350.84;3591595;39;20128;-66
2022/07/31 11:01:25;;;;;;;5.45;3.42;;;;;;;25.15;56.09;101348.47;3582270;39;20122;-65
2022/07/31 11:04:00;;;;;;;3.92;2.78;;;;;;;25.15;56.28;101331.94;3590951;39;20058;-65
2022/07/31 11:06:39;;;;;;;5.25;3.35;;;;;;;25.26;56.74;101344.44;3591732;39;20060;-65
2022/07/31 11:09:05;;;;;;;5.03;3.90;;;;;;;25.34;56.27;101343.53;3589746;39;20051;-65
2022/07/31 11:11:36;;;;;;;4.47;3.30;;;;;;;25.37;56.26;101322.06;3592930;39;20061;-65
2022/07/31 11:14:02;;;;;;;3.42;2.95;;;;;;;25.60;55.29;101327.59;3591263;39;20055;-65
2022/07/31 11:16:28;;;;;;;4.70;3.17;;;;;;;25.88;55.80;101330.72;3591531;39;20055;-65
2022/07/31 11:19:08;;;;;;;4.88;3.20;;;;;;;26.21;54.34;101338.72;3592295;39;20070;-64
2022/07/31 11:21:40;;;;;;;6.15;3.58;;;;;;;26.45;53.20;101328.50;3589339;39;20127;-65
2022/07/31 11:24:17;;;;;;;4.35;3.20;;;;;;;26.52;52.57;101330.38;3593221;39;20062;-65
2022/07/31 11:26:54;;;;;;;3.78;3.40;;;;;;;26.51;52.67;101323.13;3594115;39;20051;-65